Terminal Aerodrome Forecast
Issued by NWS

Home | Current Version | Previous Version | Text Only | Print | Product List | Glossary On
Versions: 1 2 3 4 5 6 7 8 9 10 11 12 13 14 15
000
FTUS45 KREV 250500
TAFTRK
TAF
KTRK 250524Z 2506/2606 19011G19KT P6SM VCSH SCT030 BKN050
      WS020/25040KT
     FM250700 20010G18KT 4SM -RASN OVC015 WS020/25040KT
     FM251000 22012G20KT 2SM -RASN OVC015
     FM251400 24012G25KT 5SM -SHSN OVC020
      AMD NOT SKED 2506/2512=

USA.gov is the U.S. government's official web portal to all federal, state and local government web resources and services.